sensor_id;sensor_type;location;lat;lon;timestamp;pressure;altitude;pressure_sealevel;temperature;humidity
36260;BME280;22296;50.824;5.644;2023-06-22T00:00:01;100918.59;;;27.61;43.07
36260;BME280;22296;50.824;5.644;2023-06-22T00:02:37;100925.09;;;27.62;43.02
36260;BME280;22296;50.824;5.644;2023-06-22T00:05:04;100919.00;;;27.56;43.13
36260;BME280;22296;50.824;5.644;2023-06-22T00:07:31;100920.66;;;27.57;43.36
36260;BME280;22296;50.824;5.644;2023-06-22T00:09:58;100909.69;;;27.59;42.87
36260;BME280;22296;50.824;5.644;2023-06-22T00:12:25;100919.00;;;27.56;42.98
36260;BME280;22296;50.824;5.644;2023-06-22T00:14:51;100922.25;;;27.55;42.91
36260;BME280;22296;50.824;5.644;2023-06-22T00:17:18;100929.53;;;27.56;43.10
36260;BME280;22296;50.824;5.644;2023-06-22T00:19:47;100919.44;;;27.55;43.30
36260;BME280;22296;50.824;5.644;2023-06-22T00:22:14;100923.47;;;27.57;43.09
36260;BME280;22296;50.824;5.644;2023-06-22T00:24:41;100919.44;;;27.55;43.38
36260;BME280;22296;50.824;5.644;2023-06-22T00:27:08;100919.00;;;27.56;43.39
36260;BME280;22296;50.824;5.644;2023-06-22T00:29:35;100917.38;;;27.55;43.54
36260;BME280;22296;50.824;5.644;2023-06-22T00:32:02;100914.56;;;27.55;43.48
36260;BME280;22296;50.824;5.644;2023-06-22T00:34:28;100912.94;;;27.54;43.64
36260;BME280;22296;50.824;5.644;2023-06-22T00:36:55;100914.16;;;27.53;43.72
36260;BME280;22296;50.824;5.644;2023-06-22T00:39:22;100916.59;;;27.51;43.47
36260;BME280;22296;50.824;5.644;2023-06-22T00:41:50;100909.28;;;27.50;43.71
36260;BME280;22296;50.824;5.644;2023-06-22T00:44:16;100910.94;;;27.51;43.65
36260;BME280;22296;50.824;5.644;2023-06-22T00:46:43;100906.84;;;27.52;43.51
36260;BME280;22296;50.824;5.644;2023-06-22T00:49:10;100901.59;;;27.51;43.42
36260;BME280;22296;50.824;5.644;2023-06-22T00:51:38;100900.41;;;27.48;43.52
36260;BME280;22296;50.824;5.644;2023-06-22T00:54:04;100900.78;;;27.47;43.53
36260;BME280;22296;50.824;5.644;2023-06-22T00:56:32;100900.41;;;27.48;43.39
36260;BME280;22296;50.824;5.644;2023-06-22T00:59:01;100897.97;;;27.50;43.61
36260;BME280;22296;50.824;5.644;2023-06-22T01:01:30;100890.28;;;27.47;43.57
36260;BME280;22296;50.824;5.644;2023-06-22T01:03:57;100896.34;;;27.49;43.53
36260;BME280;22296;50.824;5.644;2023-06-22T01:06:31;100898.38;;;27.49;43.68
36260;BME280;22296;50.824;5.644;2023-06-22T01:09:22;100889.06;;;27.48;43.52
36260;BME280;22296;50.824;5.644;2023-06-22T01:11:57;100893.53;;;27.46;43.75
36260;BME280;22296;50.824;5.644;2023-06-22T01:14:36;100888.25;;;27.44;43.65
36260;BME280;22296;50.824;5.644;2023-06-22T01:17:05;100886.66;;;27.43;43.58
36260;BME280;22296;50.824;5.644;2023-06-22T01:19:44;100892.31;;;27.43;43.76
36260;BME280;22296;50.824;5.644;2023-06-22T01:22:17;100876.09;;;27.40;43.82
36260;BME280;22296;50.824;5.644;2023-06-22T01:28:52;100864.75;;;27.44;43.86
36260;BME280;22296;50.824;5.644;2023-06-22T01:31:12;100876.09;;;27.40;43.87
36260;BME280;22296;50.824;5.644;2023-06-22T01:33:42;100864.75;;;27.40;43.82
36260;BME280;22296;50.824;5.644;2023-06-22T01:36:09;100863.56;;;27.41;43.39
36260;BME280;22296;50.824;5.644;2023-06-22T01:38:37;100862.72;;;27.41;43.81
36260;BME280;22296;50.824;5.644;2023-06-22T01:41:05;100862.31;;;27.39;43.75
36260;BME280;22296;50.824;5.644;2023-06-22T01:43:33;100862.31;;;27.39;43.86
36260;BME280;22296;50.824;5.644;2023-06-22T01:46:02;100861.13;;;27.40;43.76
36260;BME280;22296;50.824;5.644;2023-06-22T01:48:30;100854.63;;;27.39;43.62
36260;BME280;22296;50.824;5.644;2023-06-22T01:50:57;100864.75;;;27.40;43.71
36260;BME280;22296;50.824;5.644;2023-06-22T01:53:24;100859.09;;;27.40;44.06
36260;BME280;22296;50.824;5.644;2023-06-22T01:55:51;100861.13;;;27.40;43.89
36260;BME280;22296;50.824;5.644;2023-06-22T01:58:21;100854.63;;;27.39;43.65
36260;BME280;22296;50.824;5.644;2023-06-22T02:01:00;100843.72;;;27.41;43.91
36260;BME280;22296;50.824;5.644;2023-06-22T02:03:34;100847.38;;;27.35;43.83
36260;BME280;22296;50.824;5.644;2023-06-22T02:06:10;100849.38;;;27.34;43.50
36260;BME280;22296;50.824;5.644;2023-06-22T02:08:47;100849.38;;;27.34;43.78
36260;BME280;22296;50.824;5.644;2023-06-22T02:11:17;100841.69;;;27.35;43.83
36260;BME280;22296;50.824;5.644;2023-06-22T02:13:45;100835.22;;;27.34;43.99
36260;BME280;22296;50.824;5.644;2023-06-22T02:16:14;100840.47;;;27.32;43.98
36260;BME280;22296;50.824;5.644;2023-06-22T02:18:49;100841.69;;;27.31;44.10
36260;BME280;22296;50.824;5.644;2023-06-22T02:21:19;100827.53;;;27.31;44.12
36260;BME280;22296;50.824;5.644;2023-06-22T02:23:47;100832.38;;;27.34;44.15
36260;BME280;22296;50.824;5.644;2023-06-22T02:26:16;100831.56;;;27.30;43.82
36260;BME280;22296;50.824;5.644;2023-06-22T02:28:43;100830.75;;;27.30;43.86
36260;BME280;22296;50.824;5.644;2023-06-22T02:31:10;100829.53;;;27.24;43.87
36260;BME280;22296;50.824;5.644;2023-06-22T02:33:37;100829.16;;;27.25;44.08
36260;BME280;22296;50.824;5.644;2023-06-22T02:36:04;100823.47;;;27.25;44.15
36260;BME280;22296;50.824;5.644;2023-06-22T02:38:31;100822.28;;;27.26;43.94
36260;BME280;22296;50.824;5.644;2023-06-22T02:41:02;100817.81;;;27.25;43.91
36260;BME280;22296;50.824;5.644;2023-06-22T02:43:29;100814.59;;;27.23;44.03
36260;BME280;22296;50.824;5.644;2023-06-22T02:45:56;100820.63;;;27.22;43.97
36260;BME280;22296;50.824;5.644;2023-06-22T02:48:23;100810.13;;;27.18;44.15
36260;BME280;22296;50.824;5.644;2023-06-22T02:50:50;100805.28;;;27.19;43.98
36260;BME280;22296;50.824;5.644;2023-06-22T02:53:17;100804.06;;;27.20;43.99
36260;BME280;22296;50.824;5.644;2023-06-22T02:55:46;100797.59;;;27.16;43.90
36260;BME280;22296;50.824;5.644;2023-06-22T02:58:13;100800.41;;;27.16;44.11
36260;BME280;22296;50.824;5.644;2023-06-22T03:00:40;100793.97;;;27.12;44.13
36260;BME280;22296;50.824;5.644;2023-06-22T03:03:06;100792.34;;;27.14;44.12
36260;BME280;22296;50.824;5.644;2023-06-22T03:05:33;100792.75;;;27.16;44.06
36260;BME280;22296;50.824;5.644;2023-06-22T03:08:02;100795.16;;;27.18;44.06
36260;BME280;22296;50.824;5.644;2023-06-22T03:10:32;100788.69;;;27.17;44.11
36260;BME280;22296;50.824;5.644;2023-06-22T03:12:59;100789.50;;;27.14;44.24
36260;BME280;22296;50.824;5.644;2023-06-22T03:15:25;100782.22;;;27.13;44.25
36260;BME280;22296;50.824;5.644;2023-06-22T03:17:53;100778.97;;;27.15;44.21
36260;BME280;22296;50.824;5.644;2023-06-22T03:20:22;100793.56;;;27.17;44.31
36260;BME280;22296;50.824;5.644;2023-06-22T03:22:49;100789.50;;;27.14;44.37
36260;BME280;22296;50.824;5.644;2023-06-22T03:25:16;100790.72;;;27.17;44.55
36260;BME280;22296;50.824;5.644;2023-06-22T03:27:46;100793.53;;;27.31;44.82
36260;BME280;22296;50.824;5.644;2023-06-22T03:30:14;100791.91;;;27.34;45.52
36260;BME280;22296;50.824;5.644;2023-06-22T03:32:41;100797.97;;;27.39;45.13
36260;BME280;22296;50.824;5.644;2023-06-22T03:35:09;100805.28;;;27.40;45.32
36260;BME280;22296;50.824;5.644;2023-06-22T03:37:39;100818.66;;;27.43;45.16
36260;BME280;22296;50.824;5.644;2023-06-22T03:40:07;100817.84;;;27.46;44.99
36260;BME280;22296;50.824;5.644;2023-06-22T03:42:34;100815.41;;;27.48;45.08
36260;BME280;22296;50.824;5.644;2023-06-22T03:45:03;100815.38;;;27.55;44.87
36260;BME280;22296;50.824;5.644;2023-06-22T03:47:30;100817.00;;;27.49;44.89
36260;BME280;22296;50.824;5.644;2023-06-22T03:49:57;100808.94;;;27.48;45.31
36260;BME280;22296;50.824;5.644;2023-06-22T03:52:24;100820.25;;;27.48;44.95
36260;BME280;22296;50.824;5.644;2023-06-22T03:54:52;100817.84;;;27.46;45.11
36260;BME280;22296;50.824;5.644;2023-06-22T03:57:18;100824.31;;;27.43;45.09
36260;BME280;22296;50.824;5.644;2023-06-22T03:59:45;100829.13;;;27.36;45.21
36260;BME280;22296;50.824;5.644;2023-06-22T04:02:12;100831.56;;;27.37;45.06
36260;BME280;22296;50.824;5.644;2023-06-22T04:04:39;100821.84;;;27.38;45.30
36260;BME280;22296;50.824;5.644;2023-06-22T04:07:06;100823.47;;;27.39;45.26
36260;BME280;22296;50.824;5.644;2023-06-22T04:09:33;100824.28;;;27.40;45.39
36260;BME280;22296;50.824;5.644;2023-06-22T04:12:01;100810.94;;;27.40;45.50
36260;BME280;22296;50.824;5.644;2023-06-22T04:14:28;100814.16;;;27.39;45.62
36260;BME280;22296;50.824;5.644;2023-06-22T04:16:55;100814.59;;;27.37;45.54
36260;BME280;22296;50.824;5.644;2023-06-22T04:19:21;100808.50;;;27.35;45.42
36260;BME280;22296;50.824;5.644;2023-06-22T04:21:48;100807.72;;;27.35;45.97
36260;BME280;22296;50.824;5.644;2023-06-22T04:24:15;100798.78;;;27.33;45.74
36260;BME280;22296;50.824;5.644;2023-06-22T04:26:42;100800.81;;;27.32;45.74
36260;BME280;22296;50.824;5.644;2023-06-22T04:29:12;100810.53;;;27.31;46.00
36260;BME280;22296;50.824;5.644;2023-06-22T04:31:39;100813.75;;;27.30;45.84
36260;BME280;22296;50.824;5.644;2023-06-22T04:34:08;100802.44;;;27.30;46.25
36260;BME280;22296;50.824;5.644;2023-06-22T04:36:36;100800.84;;;27.29;46.29
36260;BME280;22296;50.824;5.644;2023-06-22T04:39:04;100800.84;;;27.29;46.39
36260;BME280;22296;50.824;5.644;2023-06-22T04:41:32;100803.25;;;27.27;46.61
36260;BME280;22296;50.824;5.644;2023-06-22T04:44:26;100808.50;;;27.28;46.44
36260;BME280;22296;50.824;5.644;2023-06-22T04:46:56;100815.81;;;27.29;46.59
36260;BME280;22296;50.824;5.644;2023-06-22T04:49:36;100802.84;;;27.28;46.42
36260;BME280;22296;50.824;5.644;2023-06-22T04:52:08;100795.97;;;27.29;46.64
36260;BME280;22296;50.824;5.644;2023-06-22T04:54:36;100784.22;;;27.27;46.54
36260;BME280;22296;50.824;5.644;2023-06-22T04:57:04;100789.88;;;27.24;46.74
36260;BME280;22296;50.824;5.644;2023-06-22T04:59:37;100788.69;;;27.21;46.77
36260;BME280;22296;50.824;5.644;2023-06-22T05:02:05;100791.09;;;27.15;47.08
36260;BME280;22296;50.824;5.644;2023-06-22T05:04:32;100797.97;;;27.18;47.10
36260;BME280;22296;50.824;5.644;2023-06-22T05:07:00;100801.63;;;27.22;47.32
36260;BME280;22296;50.824;5.644;2023-06-22T05:09:27;100795.97;;;27.22;47.22
36260;BME280;22296;50.824;5.644;2023-06-22T05:11:54;100803.25;;;27.23;47.45
36260;BME280;22296;50.824;5.644;2023-06-22T05:14:22;100800.81;;;27.25;47.12
36260;BME280;22296;50.824;5.644;2023-06-22T05:16:49;100800.00;;;27.25;47.03
36260;BME280;22296;50.824;5.644;2023-06-22T05:19:18;100798.81;;;27.22;46.81
36260;BME280;22296;50.824;5.644;2023-06-22T05:21:45;100800.00;;;27.21;47.03
36260;BME280;22296;50.824;5.644;2023-06-22T05:24:12;100800.00;;;27.21;47.34
36260;BME280;22296;50.824;5.644;2023-06-22T05:26:39;100802.84;;;27.21;47.38
36260;BME280;22296;50.824;5.644;2023-06-22T05:29:06;100802.44;;;27.23;47.20
36260;BME280;22296;50.824;5.644;2023-06-22T05:31:33;100799.59;;;27.15;47.75
36260;BME280;22296;50.824;5.644;2023-06-22T05:34:00;100807.72;;;27.21;47.97
36260;BME280;22296;50.824;5.644;2023-06-22T05:36:27;100807.28;;;27.22;48.29
36260;BME280;22296;50.824;5.644;2023-06-22T05:38:56;100804.88;;;27.24;48.01
36260;BME280;22296;50.824;5.644;2023-06-22T05:41:24;100798.38;;;27.31;47.92
36260;BME280;22296;50.824;5.644;2023-06-22T05:43:50;100796.78;;;27.33;47.68
36260;BME280;22296;50.824;5.644;2023-06-22T05:46:19;100805.66;;;27.35;47.55
36260;BME280;22296;50.824;5.644;2023-06-22T05:48:46;100806.09;;;27.37;47.66
36260;BME280;22296;50.824;5.644;2023-06-22T05:51:13;100805.66;;;27.39;47.74
36260;BME280;22296;50.824;5.644;2023-06-22T05:53:40;100806.50;;;27.43;47.55
36260;BME280;22296;50.824;5.644;2023-06-22T05:56:06;100808.94;;;27.44;47.30
36260;BME280;22296;50.824;5.644;2023-06-22T05:58:34;100801.25;;;27.45;47.48
36260;BME280;22296;50.824;5.644;2023-06-22T06:01:01;100803.25;;;27.44;47.57
36260;BME280;22296;50.824;5.644;2023-06-22T06:03:29;100805.69;;;27.42;47.53
36260;BME280;22296;50.824;5.644;2023-06-22T06:05:56;100804.06;;;27.41;47.60
36260;BME280;22296;50.824;5.644;2023-06-22T06:08:23;100813.00;;;27.43;47.76
36260;BME280;22296;50.824;5.644;2023-06-22T06:10:51;100807.31;;;27.47;47.44
36260;BME280;22296;50.824;5.644;2023-06-22T06:13:20;100796.78;;;27.47;47.61
36260;BME280;22296;50.824;5.644;2023-06-22T06:15:47;100791.53;;;27.42;47.41
36260;BME280;22296;50.824;5.644;2023-06-22T06:18:14;100786.25;;;27.37;47.98
36260;BME280;22296;50.824;5.644;2023-06-22T06:20:41;100786.66;;;27.32;47.56
36260;BME280;22296;50.824;5.644;2023-06-22T06:23:08;100781.41;;;27.34;47.89
36260;BME280;22296;50.824;5.644;2023-06-22T06:25:35;100787.06;;;27.34;47.77
36260;BME280;22296;50.824;5.644;2023-06-22T06:28:01;100782.22;;;27.35;47.59
36260;BME280;22296;50.824;5.644;2023-06-22T06:30:28;100791.91;;;27.30;47.92
36260;BME280;22296;50.824;5.644;2023-06-22T06:32:55;100784.66;;;27.29;47.96
36260;BME280;22296;50.824;5.644;2023-06-22T06:35:23;100783.84;;;27.25;47.67
36260;BME280;22296;50.824;5.644;2023-06-22T06:37:50;100780.59;;;27.23;48.04
36260;BME280;22296;50.824;5.644;2023-06-22T06:40:18;100785.47;;;27.26;47.77
36260;BME280;22296;50.824;5.644;2023-06-22T06:42:48;100779.78;;;27.30;47.60
36260;BME280;22296;50.824;5.644;2023-06-22T06:45:19;100780.59;;;27.23;47.81
36260;BME280;22296;50.824;5.644;2023-06-22T06:47:46;100775.31;;;27.18;47.94
36260;BME280;22296;50.824;5.644;2023-06-22T06:50:13;100764.41;;;27.16;47.84
36260;BME280;22296;50.824;5.644;2023-06-22T06:52:40;100769.28;;;27.09;48.10
36260;BME280;22296;50.824;5.644;2023-06-22T06:55:08;100758.34;;;27.11;48.19
36260;BME280;22296;50.824;5.644;2023-06-22T06:57:39;100764.41;;;27.13;47.94
36260;BME280;22296;50.824;5.644;2023-06-22T07:00:07;100749.03;;;27.07;48.22
36260;BME280;22296;50.824;5.644;2023-06-22T07:02:42;100736.50;;;27.04;48.12
36260;BME280;22296;50.824;5.644;2023-06-22T07:05:10;100729.22;;;27.07;50.39
36260;BME280;22296;50.824;5.644;2023-06-22T07:07:38;100727.22;;;27.14;48.90
36260;BME280;22296;50.824;5.644;2023-06-22T07:10:05;100717.53;;;27.12;48.56
36260;BME280;22296;50.824;5.644;2023-06-22T07:12:33;100713.44;;;27.13;48.67
36260;BME280;22296;50.824;5.644;2023-06-22T07:15:03;100708.22;;;27.11;48.72
36260;BME280;22296;50.824;5.644;2023-06-22T07:17:31;100692.84;;;27.09;48.66
36260;BME280;22296;50.824;5.644;2023-06-22T07:19:58;100681.09;;;27.10;48.52
36260;BME280;22296;50.824;5.644;2023-06-22T07:22:24;100674.66;;;26.96;49.05
36260;BME280;22296;50.824;5.644;2023-06-22T07:24:51;100679.50;;;27.02;48.57
36260;BME280;22296;50.824;5.644;2023-06-22T07:27:18;100681.09;;;27.07;48.62
36260;BME280;22296;50.824;5.644;2023-06-22T07:29:46;100679.50;;;27.06;48.69
36260;BME280;22296;50.824;5.644;2023-06-22T07:32:13;100691.63;;;27.06;48.90
36260;BME280;22296;50.824;5.644;2023-06-22T07:34:40;100679.50;;;26.99;48.88
36260;BME280;22296;50.824;5.644;2023-06-22T07:37:07;100682.34;;;27.06;48.84
36260;BME280;22296;50.824;5.644;2023-06-22T07:39:34;100676.66;;;27.09;48.66
36260;BME280;22296;50.824;5.644;2023-06-22T07:42:01;100674.63;;;27.10;48.62
36260;BME280;22296;50.824;5.644;2023-06-22T07:44:28;100667.75;;;27.07;48.69
36260;BME280;22296;50.824;5.644;2023-06-22T07:46:54;100671.41;;;27.08;48.79
36260;BME280;22296;50.824;5.644;2023-06-22T07:49:21;100672.59;;;27.07;48.69
36260;BME280;22296;50.824;5.644;2023-06-22T07:51:48;100664.13;;;27.07;48.67
36260;BME280;22296;50.824;5.644;2023-06-22T07:54:14;100658.06;;;27.01;48.50
36260;BME280;22296;50.824;5.644;2023-06-22T07:56:43;100658.47;;;26.89;48.59
36260;BME280;22296;50.824;5.644;2023-06-22T07:59:10;100662.53;;;26.99;48.38
36260;BME280;22296;50.824;5.644;2023-06-22T08:01:37;100666.97;;;27.00;48.12
36260;BME280;22296;50.824;5.644;2023-06-22T08:04:04;100656.03;;;26.95;47.96
36260;BME280;22296;50.824;5.644;2023-06-22T08:06:32;100661.31;;;26.93;47.71
36260;BME280;22296;50.824;5.644;2023-06-22T08:08:59;100651.63;;;26.94;47.83
36260;BME280;22296;50.824;5.644;2023-06-22T08:11:26;100647.16;;;26.93;47.80
36260;BME280;22296;50.824;5.644;2023-06-22T08:13:53;100652.00;;;26.96;47.64
36260;BME280;22296;50.824;5.644;2023-06-22T08:16:22;100656.03;;;27.02;47.44
36260;BME280;22296;50.824;5.644;2023-06-22T08:18:49;100662.91;;;27.04;47.49
36260;BME280;22296;50.824;5.644;2023-06-22T08:21:15;100656.47;;;26.97;47.72
36260;BME280;22296;50.824;5.644;2023-06-22T08:23:43;100656.47;;;26.97;47.37
36260;BME280;22296;50.824;5.644;2023-06-22T08:26:10;100654.03;;;26.95;47.46
36260;BME280;22296;50.824;5.644;2023-06-22T08:28:36;100652.00;;;26.96;49.52
36260;BME280;22296;50.824;5.644;2023-06-22T08:31:03;100637.03;;;27.06;49.56
36260;BME280;22296;50.824;5.644;2023-06-22T08:33:30;100630.94;;;27.14;48.92
36260;BME280;22296;50.824;5.644;2023-06-22T08:35:58;100629.75;;;27.12;48.54
36260;BME280;22296;50.824;5.644;2023-06-22T08:38:25;100620.41;;;27.15;48.40
36260;BME280;22296;50.824;5.644;2023-06-22T08:40:52;100617.16;;;27.24;47.81
36260;BME280;22296;50.824;5.644;2023-06-22T08:43:19;100620.81;;;27.21;47.65
36260;BME280;22296;50.824;5.644;2023-06-22T08:45:46;100618.00;;;27.13;48.16
36260;BME280;22296;50.824;5.644;2023-06-22T08:48:13;100614.75;;;27.18;47.98
36260;BME280;22296;50.824;5.644;2023-06-22T08:50:39;100613.97;;;27.14;48.37
36260;BME280;22296;50.824;5.644;2023-06-22T08:53:09;100609.94;;;27.01;48.71
36260;BME280;22296;50.824;5.644;2023-06-22T08:55:36;100613.16;;;27.14;48.06
36260;BME280;22296;50.824;5.644;2023-06-22T08:58:03;100605.06;;;27.12;47.91
36260;BME280;22296;50.824;5.644;2023-06-22T09:00:31;100612.34;;;27.10;47.89
36260;BME280;22296;50.824;5.644;2023-06-22T09:03:01;100615.59;;;27.12;47.83
36260;BME280;22296;50.824;5.644;2023-06-22T09:05:28;100609.50;;;27.06;47.79
36260;BME280;22296;50.824;5.644;2023-06-22T09:07:56;100621.66;;;27.07;47.82
36260;BME280;22296;50.824;5.644;2023-06-22T09:10:25;100615.22;;;27.03;47.71
36260;BME280;22296;50.824;5.644;2023-06-22T09:12:53;100615.59;;;27.01;48.08
36260;BME280;22296;50.824;5.644;2023-06-22T09:15:20;100611.56;;;26.99;47.99
36260;BME280;22296;50.824;5.644;2023-06-22T09:17:47;100604.69;;;27.00;47.98
36260;BME280;22296;50.824;5.644;2023-06-22T09:20:15;100600.63;;;27.01;47.90
36260;BME280;22296;50.824;5.644;2023-06-22T09:22:42;100593.78;;;27.02;47.90
36260;BME280;22296;50.824;5.644;2023-06-22T09:25:09;100593.78;;;27.05;48.10
36260;BME280;22296;50.824;5.644;2023-06-22T09:27:36;100594.97;;;27.04;47.83
36260;BME280;22296;50.824;5.644;2023-06-22T09:30:03;100599.44;;;27.02;49.09
36260;BME280;22296;50.824;5.644;2023-06-22T09:32:30;100612.34;;;27.17;49.41
36260;BME280;22296;50.824;5.644;2023-06-22T09:34:57;100634.13;;;27.27;50.03
36260;BME280;22296;50.824;5.644;2023-06-22T09:37:24;100646.28;;;27.28;49.28
36260;BME280;22296;50.824;5.644;2023-06-22T09:39:51;100663.28;;;27.24;48.65
36260;BME280;22296;50.824;5.644;2023-06-22T09:42:18;100672.59;;;27.14;48.70
36260;BME280;22296;50.824;5.644;2023-06-22T09:44:45;100672.19;;;27.15;48.89
36260;BME280;22296;50.824;5.644;2023-06-22T09:47:12;100686.75;;;27.21;48.52
36260;BME280;22296;50.824;5.644;2023-06-22T09:49:39;100688.75;;;27.24;48.18
36260;BME280;22296;50.824;5.644;2023-06-22T09:52:13;100690.38;;;27.25;48.01
36260;BME280;22296;50.824;5.644;2023-06-22T09:54:40;100694.03;;;27.26;48.05
36260;BME280;22296;50.824;5.644;2023-06-22T09:57:07;100688.38;;;27.22;48.25
36260;BME280;22296;50.824;5.644;2023-06-22T09:59:34;100687.16;;;27.23;48.38
36260;BME280;22296;50.824;5.644;2023-06-22T10:02:01;100683.50;;;27.26;48.06
36260;BME280;22296;50.824;5.644;2023-06-22T10:04:28;100687.94;;;27.27;48.14
36260;BME280;22296;50.824;5.644;2023-06-22T10:06:55;100698.06;;;27.28;48.24
36260;BME280;22296;50.824;5.644;2023-06-22T10:09:23;100700.50;;;27.26;48.20
36260;BME280;22296;50.824;5.644;2023-06-22T10:11:50;100704.13;;;27.27;48.29
36260;BME280;22296;50.824;5.644;2023-06-22T10:14:16;100711.84;;;27.26;48.49
36260;BME280;22296;50.824;5.644;2023-06-22T10:16:44;100707.75;;;27.27;48.82
36260;BME280;22296;50.824;5.644;2023-06-22T10:19:11;100707.75;;;27.27;48.67
36260;BME280;22296;50.824;5.644;2023-06-22T10:21:38;100688.38;;;27.26;48.71
36260;BME280;22296;50.824;5.644;2023-06-22T10:24:05;100661.25;;;27.25;48.72
36260;BME280;22296;50.824;5.644;2023-06-22T10:26:33;100632.53;;;27.23;48.80
36260;BME280;22296;50.824;5.644;2023-06-22T10:29:01;100613.13;;;27.21;49.19
36260;BME280;22296;50.824;5.644;2023-06-22T10:31:42;100622.44;;;27.22;49.51
36260;BME280;22296;50.824;5.644;2023-06-22T10:34:09;100653.59;;;27.14;50.38
36260;BME280;22296;50.824;5.644;2023-06-22T10:36:36;100650.75;;;27.18;50.51
36260;BME280;22296;50.824;5.644;2023-06-22T10:39:02;100636.19;;;27.23;50.30
36260;BME280;22296;50.824;5.644;2023-06-22T10:41:30;100613.13;;;27.21;49.68
36260;BME280;22296;50.824;5.644;2023-06-22T10:43:57;100606.25;;;27.22;49.55
36260;BME280;22296;50.824;5.644;2023-06-22T10:46:25;100609.88;;;27.23;50.17
36260;BME280;22296;50.824;5.644;2023-06-22T10:48:52;100605.03;;;27.23;50.16
36260;BME280;22296;50.824;5.644;2023-06-22T10:51:21;100598.13;;;27.24;50.08
36260;BME280;22296;50.824;5.644;2023-06-22T10:53:48;100599.38;;;27.23;50.17
36260;BME280;22296;50.824;5.644;2023-06-22T10:56:15;100604.22;;;27.26;50.64
36260;BME280;22296;50.824;5.644;2023-06-22T10:58:42;100606.63;;;27.31;50.99
36260;BME280;22296;50.824;5.644;2023-06-22T11:01:09;100601.72;;;27.35;51.45
36260;BME280;22296;50.824;5.644;2023-06-22T11:03:55;100598.50;;;27.40;51.34
36260;BME280;22296;50.824;5.644;2023-06-22T11:06:22;100594.06;;;27.43;52.16
36260;BME280;22296;50.824;5.644;2023-06-22T11:08:49;100590.81;;;27.44;51.41
36260;BME280;22296;50.824;5.644;2023-06-22T11:11:32;100575.81;;;27.47;51.13
36260;BME280;22296;50.824;5.644;2023-06-22T11:13:59;100570.16;;;27.44;51.08
36260;BME280;22296;50.824;5.644;2023-06-22T11:16:27;100562.91;;;27.46;51.13
36260;BME280;22296;50.824;5.644;2023-06-22T11:18:53;100553.97;;;27.48;51.53
36260;BME280;22296;50.824;5.644;2023-06-22T11:21:20;100552.34;;;27.47;52.17
36260;BME280;22296;50.824;5.644;2023-06-22T11:23:47;100549.16;;;27.41;51.63
36260;BME280;22296;50.824;5.644;2023-06-22T11:26:14;100538.66;;;27.35;51.91
36260;BME280;22296;50.824;5.644;2023-06-22T11:28:41;100540.22;;;27.39;51.80
36260;BME280;22296;50.824;5.644;2023-06-22T11:31:08;100520.84;;;27.34;51.79
36260;BME280;22296;50.824;5.644;2023-06-22T11:33:52;100510.34;;;27.28;52.15
36260;BME280;22296;50.824;5.644;2023-06-22T11:36:19;100504.28;;;27.29;52.30
36260;BME280;22296;50.824;5.644;2023-06-22T11:38:46;100504.69;;;27.31;52.28
36260;BME280;22296;50.824;5.644;2023-06-22T11:41:12;100501.03;;;27.27;52.20
36260;BME280;22296;50.824;5.644;2023-06-22T11:43:39;100499.09;;;27.17;52.64
36260;BME280;22296;50.824;5.644;2023-06-22T11:46:06;100508.75;;;27.23;52.70
36260;BME280;22296;50.824;5.644;2023-06-22T11:48:33;100511.22;;;27.17;52.69
36260;BME280;22296;50.824;5.644;2023-06-22T11:51:00;100503.94;;;27.13;53.01
36260;BME280;22296;50.824;5.644;2023-06-22T11:53:29;100502.75;;;27.14;52.96
36260;BME280;22296;50.824;5.644;2023-06-22T11:55:56;100489.41;;;27.11;52.82
36260;BME280;22296;50.824;5.644;2023-06-22T11:58:23;100486.56;;;27.11;52.60
36260;BME280;22296;50.824;5.644;2023-06-22T12:00:50;100484.94;;;27.10;53.01
36260;BME280;22296;50.824;5.644;2023-06-22T12:03:19;100484.13;;;27.13;53.01
36260;BME280;22296;50.824;5.644;2023-06-22T12:05:49;100490.22;;;27.08;53.60
36260;BME280;22296;50.824;5.644;2023-06-22T12:08:16;100487.81;;;27.03;53.35
36260;BME280;22296;50.824;5.644;2023-06-22T12:10:43;100468.41;;;27.05;53.18
36260;BME280;22296;50.824;5.644;2023-06-22T12:13:10;100462.81;;;26.91;53.77
36260;BME280;22296;50.824;5.644;2023-06-22T12:15:37;100457.16;;;26.84;53.77
36260;BME280;22296;50.824;5.644;2023-06-22T12:18:04;100457.16;;;26.91;53.80
36260;BME280;22296;50.824;5.644;2023-06-22T12:20:31;100467.66;;;26.94;53.73
36260;BME280;22296;50.824;5.644;2023-06-22T12:22:59;100464.00;;;26.97;53.52
36260;BME280;22296;50.824;5.644;2023-06-22T12:25:25;100464.81;;;26.97;53.54
36260;BME280;22296;50.824;5.644;2023-06-22T12:27:52;100462.38;;;26.99;53.30
36260;BME280;22296;50.824;5.644;2023-06-22T12:30:20;100462.38;;;26.92;53.26
36260;BME280;22296;50.824;5.644;2023-06-22T12:32:47;100457.09;;;26.98;53.15
36260;BME280;22296;50.824;5.644;2023-06-22T12:35:14;100455.13;;;26.91;53.44
36260;BME280;22296;50.824;5.644;2023-06-22T12:37:41;100445.78;;;26.98;53.32
36260;BME280;22296;50.824;5.644;2023-06-22T12:40:11;100438.53;;;26.97;53.16
36260;BME280;22296;50.824;5.644;2023-06-22T12:42:38;100436.06;;;26.99;53.23
36260;BME280;22296;50.824;5.644;2023-06-22T12:45:05;100437.69;;;27.00;53.14
36260;BME280;22296;50.824;5.644;2023-06-22T12:47:32;100436.16;;;26.74;53.92
36260;BME280;22296;50.824;5.644;2023-06-22T12:49:59;100431.38;;;26.57;54.33
36260;BME280;22296;50.824;5.644;2023-06-22T12:52:26;100432.13;;;26.72;53.62
36260;BME280;22296;50.824;5.644;2023-06-22T12:54:53;100427.31;;;26.69;53.81
36260;BME280;22296;50.824;5.644;2023-06-22T12:57:21;100425.69;;;26.60;54.11